Time;durP1;ratioP1;P1;durP2;ratioP2;P2;SDS_P1;SDS_P2;PMS_P1;PMS_P2;Temp;Humidity;BMP_temperature;BMP_pressure;BME280_temperature;BME280_humidity;BME280_pressure;Samples;Min_cycle;Max_cycle;Signal;HPM_P1;HPM_P2
2023/05/27 00:01:04;;;;;;;;;;;;;;;;;;5061707;28;19936;-80
2023/05/27 00:03:29;;;;;;;;;;;;;;;;;;5032906;28;19913;-80
2023/05/27 00:05:55;;;;;;;;;;;;;;;;;;5034144;28;19964;-81
2023/05/27 00:08:20;;;;;;;;;;;;;;;;;;5034833;28;19917;-81
2023/05/27 00:10:47;;;;;;;;;;;;;;;;;;5033245;28;20350;-81
2023/05/27 00:13:30;;;;;;;;;;;;;;;;;;5035956;28;19936;-81
2023/05/27 00:15:56;;;;;;;;;;;;;;;;;;5034264;28;19913;-81
2023/05/27 00:18:21;;;;;;;;;;;;;;;;;;5039434;28;19949;-82
2023/05/27 00:20:47;;;;;;;;;;;;;;;;;;5037080;28;19912;-81
2023/05/27 00:23:13;;;;;;;;;;;;;;;;;;5044438;28;19936;-80
2023/05/27 00:25:38;;;;;;;;;;;;;;;;;;5044956;28;19948;-81
2023/05/27 00:28:03;;;;;;;;;;;;;;;;;;5053289;28;19920;-82
2023/05/27 00:30:29;;;;;;;;;;;;;;;;;;5045934;28;20421;-81
2023/05/27 00:32:54;;;;;;;;;;;;;;;;;;5044900;28;19963;-82
2023/05/27 00:35:19;;;;;;;;;;;;;;;;;;5028202;28;19913;-83
2023/05/27 00:37:45;;;;;;;;;;;;;;;;;;5046127;28;20024;-81
2023/05/27 00:40:10;;;;;;;;;;;;;;;;;;5047726;28;19917;-82
2023/05/27 00:42:36;;;;;;;;;;;;;;;;;;5047374;28;19912;-82
2023/05/27 00:45:01;;;;;;;;;;;;;;;;;;5046531;28;19916;-82
2023/05/27 00:47:27;;;;;;;;;;;;;;;;;;5048177;28;20316;-81
2023/05/27 00:49:53;;;;;;;;;;;;;;;;;;5046893;28;19908;-82
2023/05/27 00:52:18;;;;;;;;;;;;;;;;;;5049306;28;19919;-82
2023/05/27 00:54:43;;;;;;;;;;;;;;;;;;5048819;28;19924;-81
2023/05/27 00:57:09;;;;;;;;;;;;;;;;;;5034654;28;20280;-82
2023/05/27 00:59:34;;;;;;;;;;;;;;;;;;5040423;28;19913;-81
2023/05/27 01:02:00;;;;;;;;;;;;;;;;;;5033696;28;19917;-81
2023/05/27 01:04:25;;;;;;;;;;;;;;;;;;5032524;28;19992;-81
2023/05/27 01:06:50;;;;;;;;;;;;;;;;;;5031152;28;19921;-82
2023/05/27 01:09:15;;;;;;;;;;;;;;;;;;5028685;28;19916;-82
2023/05/27 01:11:41;;;;;;;;;;;;;;;;;;5071874;28;19913;-82
2023/05/27 01:14:07;;;;;;;;;;;;;;;;;;5040133;28;19932;-82
2023/05/27 01:16:32;;;;;;;;;;;;;;;;;;5036625;28;19913;-82
2023/05/27 01:18:59;;;;;;;;;;;;;;;;;;5032822;28;20314;-82
2023/05/27 01:21:25;;;;;;;;;;;;;;;;;;5016228;28;19920;-82
2023/05/27 01:23:50;;;;;;;;;;;;;;;;;;5037647;28;20343;-82
2023/05/27 01:26:16;;;;;;;;;;;;;;;;;;5036670;28;20070;-82
2023/05/27 01:28:41;;;;;;;;;;;;;;;;;;5036078;28;19909;-81
2023/05/27 01:31:07;;;;;;;;;;;;;;;;;;5036575;28;19920;-82
2023/05/27 01:33:32;;;;;;;;;;;;;;;;;;5035853;28;19941;-82
2023/05/27 01:35:57;;;;;;;;;;;;;;;;;;5036567;28;20304;-82
2023/05/27 01:38:23;;;;;;;;;;;;;;;;;;5036603;28;20011;-82
2023/05/27 01:40:48;;;;;;;;;;;;;;;;;;5036648;28;19913;-82
2023/05/27 01:43:13;;;;;;;;;;;;;;;;;;5036630;28;19912;-81
2023/05/27 01:45:39;;;;;;;;;;;;;;;;;;5035535;28;20008;-82
2023/05/27 01:48:04;;;;;;;;;;;;;;;;;;5034908;28;19964;-82
2023/05/27 01:50:33;;;;;;;;;;;;;;;;;;5036831;28;19936;-81
2023/05/27 01:52:58;;;;;;;;;;;;;;;;;;5019166;28;20379;-82
2023/05/27 01:55:23;;;;;;;;;;;;;;;;;;5035275;28;19913;-81
2023/05/27 01:57:49;;;;;;;;;;;;;;;;;;5034885;28;19912;-81
2023/05/27 02:00:15;;;;;;;;;;;;;;;;;;5034725;28;19912;-81
2023/05/27 02:02:43;;;;;;;;;;;;;;;;;;5037360;28;19920;-82
2023/05/27 02:05:11;;;;;;;;;;;;;;;;;;5035347;28;19919;-82
2023/05/27 02:07:38;;;;;;;;;;;;;;;;;;5035819;28;20400;-82
2023/05/27 02:10:03;;;;;;;;;;;;;;;;;;5036123;28;20049;-82
2023/05/27 02:12:29;;;;;;;;;;;;;;;;;;5038827;28;19956;-82
2023/05/27 02:14:54;;;;;;;;;;;;;;;;;;5040695;28;19913;-82
2023/05/27 02:17:20;;;;;;;;;;;;;;;;;;5042839;28;19913;-82
2023/05/27 02:19:46;;;;;;;;;;;;;;;;;;5034798;28;19923;-82
2023/05/27 02:22:11;;;;;;;;;;;;;;;;;;5034535;28;19913;-82
2023/05/27 02:24:36;;;;;;;;;;;;;;;;;;5036064;28;19919;-82
2023/05/27 02:27:02;;;;;;;;;;;;;;;;;;5035644;28;19913;-81
2023/05/27 02:29:27;;;;;;;;;;;;;;;;;;5035646;28;20376;-81
2023/05/27 02:31:52;;;;;;;;;;;;;;;;;;5039065;28;20333;-81
2023/05/27 02:34:18;;;;;;;;;;;;;;;;;;5040654;28;20391;-81
2023/05/27 02:36:43;;;;;;;;;;;;;;;;;;5034566;28;19925;-80
2023/05/27 02:39:08;;;;;;;;;;;;;;;;;;5035578;28;19920;-80
2023/05/27 02:41:34;;;;;;;;;;;;;;;;;;5039208;28;19912;-81
2023/05/27 02:43:59;;;;;;;;;;;;;;;;;;5034103;28;19912;-81
2023/05/27 02:46:24;;;;;;;;;;;;;;;;;;5036035;28;20016;-80
2023/05/27 02:48:50;;;;;;;;;;;;;;;;;;5036545;28;19916;-81
2023/05/27 02:51:15;;;;;;;;;;;;;;;;;;5022231;28;19908;-82
2023/05/27 02:53:40;;;;;;;;;;;;;;;;;;5036312;28;19917;-80
2023/05/27 02:56:06;;;;;;;;;;;;;;;;;;5035579;28;19942;-81
2023/05/27 02:58:31;;;;;;;;;;;;;;;;;;5019931;28;19912;-81
2023/05/27 03:00:56;;;;;;;;;;;;;;;;;;5034986;28;20004;-82
2023/05/27 03:03:23;;;;;;;;;;;;;;;;;;5017836;28;19928;-82
2023/05/27 03:05:48;;;;;;;;;;;;;;;;;;5034939;28;19909;-79
2023/05/27 03:08:14;;;;;;;;;;;;;;;;;;5030916;28;19924;-79
2023/05/27 03:10:39;;;;;;;;;;;;;;;;;;5035228;28;19963;-82
2023/05/27 03:13:04;;;;;;;;;;;;;;;;;;5034669;28;19913;-80
2023/05/27 03:15:31;;;;;;;;;;;;;;;;;;5035463;28;20008;-80
2023/05/27 03:17:56;;;;;;;;;;;;;;;;;;5038586;28;19913;-80
2023/05/27 03:20:21;;;;;;;;;;;;;;;;;;5035578;28;19916;-80
2023/05/27 03:22:47;;;;;;;;;;;;;;;;;;5033970;28;19913;-81
2023/05/27 03:25:12;;;;;;;;;;;;;;;;;;5033754;28;19959;-80
2023/05/27 03:27:38;;;;;;;;;;;;;;;;;;5035315;28;19924;-79
2023/05/27 03:30:07;;;;;;;;;;;;;;;;;;5034460;28;19915;-82
2023/05/27 03:32:35;;;;;;;;;;;;;;;;;;5049618;28;20309;-82
2023/05/27 03:35:00;;;;;;;;;;;;;;;;;;5034341;28;19974;-82
2023/05/27 03:37:25;;;;;;;;;;;;;;;;;;5033969;28;19928;-81
2023/05/27 03:39:59;;;;;;;;;;;;;;;;;;5034301;28;19909;-79
2023/05/27 03:42:25;;;;;;;;;;;;;;;;;;5033901;28;20368;-81
2023/05/27 03:44:51;;;;;;;;;;;;;;;;;;5034026;28;19913;-79
2023/05/27 03:47:20;;;;;;;;;;;;;;;;;;5034000;28;19916;-82
2023/05/27 03:49:45;;;;;;;;;;;;;;;;;;5019164;28;19909;-82
2023/05/27 03:52:11;;;;;;;;;;;;;;;;;;5034247;28;20058;-79
2023/05/27 03:54:36;;;;;;;;;;;;;;;;;;5034289;28;19936;-80
2023/05/27 03:57:02;;;;;;;;;;;;;;;;;;5033130;28;19913;-80
2023/05/27 03:59:27;;;;;;;;;;;;;;;;;;5017057;28;19998;-80
2023/05/27 04:01:53;;;;;;;;;;;;;;;;;;5040667;28;19912;-80
2023/05/27 04:04:18;;;;;;;;;;;;;;;;;;5033369;28;19936;-81
2023/05/27 04:06:43;;;;;;;;;;;;;;;;;;5032613;28;19917;-80
2023/05/27 04:09:09;;;;;;;;;;;;;;;;;;5031576;28;19916;-80
2023/05/27 04:11:34;;;;;;;;;;;;;;;;;;5034563;28;19956;-81
2023/05/27 04:13:59;;;;;;;;;;;;;;;;;;5034639;28;19909;-80
2023/05/27 04:16:25;;;;;;;;;;;;;;;;;;5033498;28;19919;-81
2023/05/27 04:18:51;;;;;;;;;;;;;;;;;;5034561;28;19959;-83
2023/05/27 04:21:16;;;;;;;;;;;;;;;;;;5033421;28;19916;-82
2023/05/27 04:23:41;;;;;;;;;;;;;;;;;;5035044;28;20012;-82
2023/05/27 04:26:07;;;;;;;;;;;;;;;;;;5031793;28;19913;-81
2023/05/27 04:28:38;;;;;;;;;;;;;;;;;;5032438;28;20364;-81
2023/05/27 04:31:04;;;;;;;;;;;;;;;;;;5032556;28;20288;-82
2023/05/27 04:33:37;;;;;;;;;;;;;;;;;;5017489;28;20368;-82
2023/05/27 04:36:03;;;;;;;;;;;;;;;;;;5032468;28;20281;-82
2023/05/27 04:38:34;;;;;;;;;;;;;;;;;;5033881;28;19916;-83
2023/05/27 04:41:03;;;;;;;;;;;;;;;;;;5032636;28;19960;-82
2023/05/27 04:44:07;;;;;;;;;;;;;;;;;;5013504;28;19932;-82
2023/05/27 04:46:38;;;;;;;;;;;;;;;;;;5033520;28;20300;-82
2023/05/27 04:49:04;;;;;;;;;;;;;;;;;;5032566;28;19913;-83
2023/05/27 04:51:31;;;;;;;;;;;;;;;;;;5032885;28;19913;-82
2023/05/27 04:53:57;;;;;;;;;;;;;;;;;;5037717;28;19913;-82
2023/05/27 04:56:22;;;;;;;;;;;;;;;;;;5042281;28;19917;-83
2023/05/27 04:58:49;;;;;;;;;;;;;;;;;;5038157;28;20030;-82
2023/05/27 05:01:17;;;;;;;;;;;;;;;;;;5034801;28;19908;-83
2023/05/27 05:06:32;;;;;;;;;;;;;;;;;;5034112;28;19916;-82
2023/05/27 05:08:57;;;;;;;;;;;;;;;;;;5032664;28;19909;-82
2023/05/27 05:11:26;;;;;;;;;;;;;;;;;;5042588;28;20102;-81
2023/05/27 05:13:51;;;;;;;;;;;;;;;;;;5043168;28;20335;-81
2023/05/27 05:16:17;;;;;;;;;;;;;;;;;;5022507;28;19960;-81
2023/05/27 05:18:42;;;;;;;;;;;;;;;;;;5041769;28;19916;-82
2023/05/27 05:21:07;;;;;;;;;;;;;;;;;;5043339;28;20265;-82
2023/05/27 05:23:39;;;;;;;;;;;;;;;;;;5051347;28;19915;-81
2023/05/27 05:26:06;;;;;;;;;;;;;;;;;;5056433;28;19917;-83
2023/05/27 05:28:34;;;;;;;;;;;;;;;;;;5021044;28;20291;-82
2023/05/27 05:30:59;;;;;;;;;;;;;;;;;;5043344;28;19912;-82
2023/05/27 05:33:25;;;;;;;;;;;;;;;;;;5038038;28;20004;-83
2023/05/27 05:35:50;;;;;;;;;;;;;;;;;;5036406;28;19921;-83
2023/05/27 05:38:23;;;;;;;;;;;;;;;;;;5037031;28;20253;-81
2023/05/27 05:40:52;;;;;;;;;;;;;;;;;;5037992;28;19920;-82
2023/05/27 05:43:17;;;;;;;;;;;;;;;;;;5064346;28;19920;-81
2023/05/27 05:45:42;;;;;;;;;;;;;;;;;;5037928;28;19912;-80
2023/05/27 05:48:08;;;;;;;;;;;;;;;;;;5031530;28;19913;-80
2023/05/27 05:50:35;;;;;;;;;;;;;;;;;;5032436;28;19920;-81
2023/05/27 05:53:01;;;;;;;;;;;;;;;;;;5015823;28;19913;-81
2023/05/27 05:55:26;;;;;;;;;;;;;;;;;;5032482;28;19913;-80
2023/05/27 05:57:51;;;;;;;;;;;;;;;;;;5032550;28;20004;-81
2023/05/27 06:00:17;;;;;;;;;;;;;;;;;;5032388;28;20365;-81
2023/05/27 06:02:43;;;;;;;;;;;;;;;;;;5033463;28;19915;-81
2023/05/27 06:05:08;;;;;;;;;;;;;;;;;;5031388;28;19948;-82
2023/05/27 06:07:34;;;;;;;;;;;;;;;;;;5030490;28;19913;-81
2023/05/27 06:10:06;;;;;;;;;;;;;;;;;;5031900;28;19963;-84
2023/05/27 06:12:37;;;;;;;;;;;;;;;;;;5035958;28;19919;-81
2023/05/27 06:15:03;;;;;;;;;;;;;;;;;;5034821;28;20619;-80
2023/05/27 06:17:35;;;;;;;;;;;;;;;;;;5018901;28;20348;-80
2023/05/27 06:20:01;;;;;;;;;;;;;;;;;;5044239;28;20372;-79
2023/05/27 06:22:26;;;;;;;;;;;;;;;;;;5053256;28;20280;-78
2023/05/27 06:24:51;;;;;;;;;;;;;;;;;;5036271;28;20012;-79
2023/05/27 06:27:27;;;;;;;;;;;;;;;;;;5034083;28;20009;-79
2023/05/27 06:29:53;;;;;;;;;;;;;;;;;;5038175;28;19960;-79
2023/05/27 06:32:28;;;;;;;;;;;;;;;;;;5044828;28;19909;-76
2023/05/27 06:34:54;;;;;;;;;;;;;;;;;;5036983;28;19924;-79
2023/05/27 06:37:19;;;;;;;;;;;;;;;;;;5042733;28;19975;-80
2023/05/27 06:39:45;;;;;;;;;;;;;;;;;;5048208;28;19917;-78
2023/05/27 06:42:10;;;;;;;;;;;;;;;;;;5045664;28;20281;-79
2023/05/27 06:44:48;;;;;;;;;;;;;;;;;;5036891;28;20011;-79
2023/05/27 06:47:20;;;;;;;;;;;;;;;;;;5044532;28;19963;-78
2023/05/27 06:49:46;;;;;;;;;;;;;;;;;;5050086;28;20011;-79
2023/05/27 06:52:12;;;;;;;;;;;;;;;;;;5047318;28;19940;-79
2023/05/27 06:55:06;;;;;;;;;;;;;;;;;;5047661;28;19913;-82
2023/05/27 06:57:50;;;;;;;;;;;;;;;;;;5033954;28;19920;-82
2023/05/27 07:00:25;;;;;;;;;;;;;;;;;;5037754;28;19952;-82
2023/05/27 07:03:09;;;;;;;;;;;;;;;;;;5065738;28;20019;-80
2023/05/27 07:05:35;;;;;;;;;;;;;;;;;;5036049;28;19952;-82
2023/05/27 07:08:00;;;;;;;;;;;;;;;;;;5032388;28;19918;-82
2023/05/27 07:10:25;;;;;;;;;;;;;;;;;;5026653;28;19996;-81
2023/05/27 07:12:51;;;;;;;;;;;;;;;;;;5032743;28;19915;-81
2023/05/27 07:15:34;;;;;;;;;;;;;;;;;;5033935;28;19913;-80
2023/05/27 07:17:59;;;;;;;;;;;;;;;;;;5034632;28;19913;-81
2023/05/27 07:20:24;;;;;;;;;;;;;;;;;;5033815;28;19917;-78
2023/05/27 07:22:50;;;;;;;;;;;;;;;;;;5034834;28;19917;-83
2023/05/27 07:25:16;;;;;;;;;;;;;;;;;;5040339;28;20283;-78
2023/05/27 07:27:42;;;;;;;;;;;;;;;;;;5040695;28;19939;-80
2023/05/27 07:30:08;;;;;;;;;;;;;;;;;;5039472;28;19908;-81
2023/05/27 07:32:48;;;;;;;;;;;;;;;;;;5038942;28;19913;-80
2023/05/27 07:35:14;;;;;;;;;;;;;;;;;;5040900;28;20398;-80
2023/05/27 07:37:39;;;;;;;;;;;;;;;;;;5044650;28;20371;-79
2023/05/27 07:40:05;;;;;;;;;;;;;;;;;;5043600;28;19912;-80
2023/05/27 07:42:33;;;;;;;;;;;;;;;;;;5042453;28;19962;-81
2023/05/27 07:44:59;;;;;;;;;;;;;;;;;;5040012;28;19912;-81
2023/05/27 07:47:24;;;;;;;;;;;;;;;;;;5020025;28;19928;-81
2023/05/27 07:49:50;;;;;;;;;;;;;;;;;;5038621;28;19913;-81
2023/05/27 07:52:33;;;;;;;;;;;;;;;;;;5037851;28;20016;-79
2023/05/27 07:55:02;;;;;;;;;;;;;;;;;;5042592;28;19917;-81
2023/05/27 07:57:28;;;;;;;;;;;;;;;;;;5042560;28;19909;-80
2023/05/27 07:59:54;;;;;;;;;;;;;;;;;;5037356;28;19919;-81
2023/05/27 08:02:22;;;;;;;;;;;;;;;;;;5045589;28;19956;-79
2023/05/27 08:04:48;;;;;;;;;;;;;;;;;;5042003;28;19912;-79
2023/05/27 08:07:35;;;;;;;;;;;;;;;;;;5039255;28;19920;-80
2023/05/27 08:10:36;;;;;;;;;;;;;;;;;;5003922;28;19913;-80
2023/05/27 08:13:16;;;;;;;;;;;;;;;;;;5019321;28;19912;-82
2023/05/27 08:16:00;;;;;;;;;;;;;;;;;;5034570;28;19978;-81
2023/05/27 08:18:38;;;;;;;;;;;;;;;;;;5039545;28;19995;-82
2023/05/27 08:21:13;;;;;;;;;;;;;;;;;;5032510;28;19916;-81
2023/05/27 08:24:02;;;;;;;;;;;;;;;;;;5031791;28;19913;-81
2023/05/27 08:26:41;;;;;;;;;;;;;;;;;;5032522;28;19971;-83
2023/05/27 08:29:20;;;;;;;;;;;;;;;;;;5015778;28;20411;-79
2023/05/27 08:31:56;;;;;;;;;;;;;;;;;;5033203;28;19958;-80
2023/05/27 08:34:21;;;;;;;;;;;;;;;;;;5032765;28;19905;-83
2023/05/27 08:36:47;;;;;;;;;;;;;;;;;;5016859;28;19925;-81
2023/05/27 08:39:12;;;;;;;;;;;;;;;;;;5057264;28;19962;-82
2023/05/27 08:41:45;;;;;;;;;;;;;;;;;;5032242;28;20273;-81
2023/05/27 08:44:10;;;;;;;;;;;;;;;;;;5032130;28;20004;-79
2023/05/27 08:46:35;;;;;;;;;;;;;;;;;;5031963;28;20288;-81
2023/05/27 08:49:01;;;;;;;;;;;;;;;;;;5031903;28;19960;-80
2023/05/27 08:51:26;;;;;;;;;;;;;;;;;;5031121;28;19916;-80
2023/05/27 08:53:52;;;;;;;;;;;;;;;;;;5032055;28;19913;-79
2023/05/27 08:56:17;;;;;;;;;;;;;;;;;;5032136;28;19909;-79
2023/05/27 08:58:45;;;;;;;;;;;;;;;;;;5032622;28;19916;-80
2023/05/27 09:01:10;;;;;;;;;;;;;;;;;;5032284;28;20376;-80
2023/05/27 09:03:36;;;;;;;;;;;;;;;;;;5031869;28;19924;-80
2023/05/27 09:06:03;;;;;;;;;;;;;;;;;;5032445;28;19909;-81
2023/05/27 09:08:28;;;;;;;;;;;;;;;;;;5032838;28;20272;-82
2023/05/27 09:10:53;;;;;;;;;;;;;;;;;;5033013;28;19919;-80
2023/05/27 09:13:19;;;;;;;;;;;;;;;;;;5015550;28;19920;-81
2023/05/27 09:15:44;;;;;;;;;;;;;;;;;;5032316;28;19996;-81
2023/05/27 09:18:10;;;;;;;;;;;;;;;;;;5049000;28;19919;-81
2023/05/27 09:20:35;;;;;;;;;;;;;;;;;;5046417;28;19954;-82
2023/05/27 09:23:00;;;;;;;;;;;;;;;;;;5050023;28;19917;-82
2023/05/27 09:25:25;;;;;;;;;;;;;;;;;;5046915;28;19909;-81
2023/05/27 09:27:51;;;;;;;;;;;;;;;;;;5032409;28;20020;-82
2023/05/27 09:30:16;;;;;;;;;;;;;;;;;;5033657;28;19931;-81
2023/05/27 09:32:42;;;;;;;;;;;;;;;;;;5034676;28;19913;-82
2023/05/27 09:35:08;;;;;;;;;;;;;;;;;;5035025;28;19966;-82
2023/05/27 09:37:34;;;;;;;;;;;;;;;;;;5037294;28;19921;-82
2023/05/27 09:39:59;;;;;;;;;;;;;;;;;;5032827;28;19972;-81
2023/05/27 09:42:25;;;;;;;;;;;;;;;;;;5033882;28;19920;-83
2023/05/27 09:44:50;;;;;;;;;;;;;;;;;;5043812;28;19913;-83
2023/05/27 09:47:16;;;;;;;;;;;;;;;;;;5040228;28;19917;-82
2023/05/27 09:49:41;;;;;;;;;;;;;;;;;;5044749;28;20425;-83
2023/05/27 09:52:07;;;;;;;;;;;;;;;;;;5041086;28;19921;-82
2023/05/27 09:54:33;;;;;;;;;;;;;;;;;;5043708;28;20371;-81
2023/05/27 09:56:58;;;;;;;;;;;;;;;;;;5039905;28;19919;-83
2023/05/27 09:59:23;;;;;;;;;;;;;;;;;;5036905;28;19959;-82
2023/05/27 10:01:49;;;;;;;;;;;;;;;;;;5034923;28;19913;-81
2023/05/27 10:04:14;;;;;;;;;;;;;;;;;;5018820;28;19909;-82
2023/05/27 10:06:40;;;;;;;;;;;;;;;;;;5037042;28;19925;-81
2023/05/27 10:09:06;;;;;;;;;;;;;;;;;;5033810;28;20272;-81
2023/05/27 10:11:31;;;;;;;;;;;;;;;;;;5036925;28;19913;-83
2023/05/27 10:13:56;;;;;;;;;;;;;;;;;;5037003;28;19916;-82
2023/05/27 10:16:22;;;;;;;;;;;;;;;;;;5035618;28;19936;-83
2023/05/27 10:18:52;;;;;;;;;;;;;;;;;;5037582;28;19959;-81
2023/05/27 10:21:17;;;;;;;;;;;;;;;;;;5036903;28;20031;-81
2023/05/27 10:23:43;;;;;;;;;;;;;;;;;;5037206;28;20403;-83
2023/05/27 10:26:08;;;;;;;;;;;;;;;;;;5038624;28;19913;-82
2023/05/27 10:28:35;;;;;;;;;;;;;;;;;;5040811;28;19923;-81
2023/05/27 10:31:00;;;;;;;;;;;;;;;;;;5038364;28;19921;-83
2023/05/27 10:33:26;;;;;;;;;;;;;;;;;;5046420;28;21152;-83
2023/05/27 10:35:51;;;;;;;;;;;;;;;;;;5036025;28;19924;-85
2023/05/27 10:38:17;;;;;;;;;;;;;;;;;;5049270;28;19915;-86
2023/05/27 10:40:42;;;;;;;;;;;;;;;;;;5044867;28;20003;-84
2023/05/27 10:43:07;;;;;;;;;;;;;;;;;;5043322;28;20372;-85
2023/05/27 10:45:33;;;;;;;;;;;;;;;;;;5047092;28;19913;-85
2023/05/27 10:47:58;;;;;;;;;;;;;;;;;;5046033;28;19987;-85
2023/05/27 10:50:24;;;;;;;;;;;;;;;;;;5041204;28;19912;-84
2023/05/27 10:52:49;;;;;;;;;;;;;;;;;;5044138;28;20292;-84
2023/05/27 10:55:15;;;;;;;;;;;;;;;;;;5039637;28;19912;-84
2023/05/27 10:57:41;;;;;;;;;;;;;;;;;;5043418;28;20492;-85
2023/05/27 11:00:08;;;;;;;;;;;;;;;;;;5039495;28;19913;-84
2023/05/27 11:02:37;;;;;;;;;;;;;;;;;;5033462;28;19909;-84
2023/05/27 11:05:03;;;;;;;;;;;;;;;;;;5039419;28;19920;-83
2023/05/27 11:07:28;;;;;;;;;;;;;;;;;;5037226;28;20342;-83
2023/05/27 11:09:54;;;;;;;;;;;;;;;;;;5034629;28;19913;-83
2023/05/27 11:12:19;;;;;;;;;;;;;;;;;;5036499;28;20398;-84
2023/05/27 11:14:44;;;;;;;;;;;;;;;;;;5033594;28;19970;-83
2023/05/27 11:17:10;;;;;;;;;;;;;;;;;;5033966;28;19913;-84
2023/05/27 11:19:35;;;;;;;;;;;;;;;;;;5032442;28;20377;-85
2023/05/27 11:22:00;;;;;;;;;;;;;;;;;;5032653;28;20437;-85
2023/05/27 11:24:26;;;;;;;;;;;;;;;;;;5033857;28;19967;-84
2023/05/27 11:26:51;;;;;;;;;;;;;;;;;;5033348;28;19963;-84
2023/05/27 11:29:16;;;;;;;;;;;;;;;;;;5033846;28;20426;-84
2023/05/27 11:31:42;;;;;;;;;;;;;;;;;;5031990;28;20390;-84
2023/05/27 11:34:07;;;;;;;;;;;;;;;;;;5032287;28;20000;-85
2023/05/27 11:36:32;;;;;;;;;;;;;;;;;;5033786;28;19950;-84
2023/05/27 11:38:58;;;;;;;;;;;;;;;;;;5034482;28;20015;-85
2023/05/27 11:41:23;;;;;;;;;;;;;;;;;;5033345;28;19983;-85
2023/05/27 11:43:49;;;;;;;;;;;;;;;;;;5065351;28;19912;-83
2023/05/27 11:46:14;;;;;;;;;;;;;;;;;;5033655;28;19932;-83
2023/05/27 11:48:39;;;;;;;;;;;;;;;;;;5033482;28;19929;-84
2023/05/27 11:51:05;;;;;;;;;;;;;;;;;;5015868;28;20364;-84
2023/05/27 11:53:30;;;;;;;;;;;;;;;;;;5032367;28;19975;-84
2023/05/27 11:55:55;;;;;;;;;;;;;;;;;;5032691;28;19955;-83
2023/05/27 11:58:21;;;;;;;;;;;;;;;;;;5033674;28;19913;-83
2023/05/27 12:00:46;;;;;;;;;;;;;;;;;;5033589;28;19944;-83
2023/05/27 12:03:11;;;;;;;;;;;;;;;;;;5032291;28;19962;-83
2023/05/27 12:05:37;;;;;;;;;;;;;;;;;;5032622;28;19909;-84
2023/05/27 12:08:03;;;;;;;;;;;;;;;;;;5032546;28;19917;-84
2023/05/27 12:10:28;;;;;;;;;;;;;;;;;;5032389;28;19909;-84
2023/05/27 12:12:53;;;;;;;;;;;;;;;;;;5031922;28;19966;-85
2023/05/27 12:15:19;;;;;;;;;;;;;;;;;;5032441;28;20376;-85
2023/05/27 12:17:44;;;;;;;;;;;;;;;;;;5032422;28;19919;-84
2023/05/27 12:20:10;;;;;;;;;;;;;;;;;;5033726;28;20395;-85
2023/05/27 12:22:35;;;;;;;;;;;;;;;;;;5015591;28;19971;-83
2023/05/27 12:25:00;;;;;;;;;;;;;;;;;;5033355;28;19917;-83
2023/05/27 12:27:26;;;;;;;;;;;;;;;;;;5032418;28;19917;-83
2023/05/27 12:29:51;;;;;;;;;;;;;;;;;;5031548;28;19909;-83
2023/05/27 12:32:16;;;;;;;;;;;;;;;;;;5033855;28;19948;-83
2023/05/27 12:34:42;;;;;;;;;;;;;;;;;;5032154;28;19909;-85
2023/05/27 12:37:07;;;;;;;;;;;;;;;;;;5033130;28;19925;-83
2023/05/27 12:39:32;;;;;;;;;;;;;;;;;;5031796;28;19909;-83
2023/05/27 12:41:58;;;;;;;;;;;;;;;;;;5033538;28;20300;-83
2023/05/27 12:44:23;;;;;;;;;;;;;;;;;;5033224;28;19915;-83
2023/05/27 12:46:48;;;;;;;;;;;;;;;;;;5033848;28;19917;-83
2023/05/27 12:49:13;;;;;;;;;;;;;;;;;;5047094;28;20417;-83
2023/05/27 12:51:39;;;;;;;;;;;;;;;;;;5044605;28;19920;-83
2023/05/27 12:54:05;;;;;;;;;;;;;;;;;;5048716;28;20319;-85
2023/05/27 12:56:30;;;;;;;;;;;;;;;;;;5044885;28;20725;-83
2023/05/27 12:58:56;;;;;;;;;;;;;;;;;;5040176;28;19909;-83
2023/05/27 13:01:21;;;;;;;;;;;;;;;;;;5042028;28;19920;-83
2023/05/27 13:03:46;;;;;;;;;;;;;;;;;;5046393;28;20371;-82
2023/05/27 13:06:12;;;;;;;;;;;;;;;;;;5043283;28;20007;-82
2023/05/27 13:08:37;;;;;;;;;;;;;;;;;;5039288;28;19958;-83
2023/05/27 13:11:02;;;;;;;;;;;;;;;;;;5031322;28;19919;-82
2023/05/27 13:13:28;;;;;;;;;;;;;;;;;;5032068;28;20326;-83
2023/05/27 13:15:54;;;;;;;;;;;;;;;;;;5031165;28;20009;-83
2023/05/27 13:18:19;;;;;;;;;;;;;;;;;;5013143;28;20000;-83
2023/05/27 13:20:44;;;;;;;;;;;;;;;;;;5029991;28;19917;-83
2023/05/27 13:23:10;;;;;;;;;;;;;;;;;;5033433;28;20012;-84
2023/05/27 13:25:35;;;;;;;;;;;;;;;;;;5034059;28;19912;-83
2023/05/27 13:28:01;;;;;;;;;;;;;;;;;;5032675;28;19924;-83
2023/05/27 13:30:26;;;;;;;;;;;;;;;;;;5044603;28;19916;-83
2023/05/27 13:32:52;;;;;;;;;;;;;;;;;;5032123;28;20003;-82
2023/05/27 13:35:17;;;;;;;;;;;;;;;;;;5032268;28;19917;-83
2023/05/27 13:37:42;;;;;;;;;;;;;;;;;;5031509;28;19924;-83
2023/05/27 13:40:08;;;;;;;;;;;;;;;;;;5033693;28;19913;-83
2023/05/27 13:42:33;;;;;;;;;;;;;;;;;;5032202;28;19935;-85
2023/05/27 13:44:58;;;;;;;;;;;;;;;;;;5032560;28;19917;-84
2023/05/27 13:47:24;;;;;;;;;;;;;;;;;;5030687;28;19912;-85
2023/05/27 13:49:49;;;;;;;;;;;;;;;;;;5031683;28;19913;-85
2023/05/27 13:52:15;;;;;;;;;;;;;;;;;;5031197;28;19909;-85
2023/05/27 13:54:40;;;;;;;;;;;;;;;;;;5031722;28;19917;-84
2023/05/27 13:57:06;;;;;;;;;;;;;;;;;;5032050;28;19912;-84
2023/05/27 13:59:31;;;;;;;;;;;;;;;;;;5031293;28;19917;-83
2023/05/27 14:01:56;;;;;;;;;;;;;;;;;;5030958;28;19909;-84
2023/05/27 14:04:22;;;;;;;;;;;;;;;;;;5031511;28;20391;-84
2023/05/27 14:06:47;;;;;;;;;;;;;;;;;;5032877;28;20438;-85
2023/05/27 14:09:12;;;;;;;;;;;;;;;;;;5029213;28;19920;-85
2023/05/27 14:11:38;;;;;;;;;;;;;;;;;;5031870;28;19916;-85
2023/05/27 14:14:03;;;;;;;;;;;;;;;;;;5031950;28;19913;-84
2023/05/27 14:16:28;;;;;;;;;;;;;;;;;;5030798;28;19932;-84
2023/05/27 14:18:54;;;;;;;;;;;;;;;;;;5032433;28;19952;-86
2023/05/27 14:21:19;;;;;;;;;;;;;;;;;;5032326;28;19916;-83
2023/05/27 14:23:44;;;;;;;;;;;;;;;;;;5013447;28;19917;-85
2023/05/27 14:26:10;;;;;;;;;;;;;;;;;;5031394;28;19909;-85
2023/05/27 14:28:35;;;;;;;;;;;;;;;;;;5032122;28;19924;-85
2023/05/27 14:31:00;;;;;;;;;;;;;;;;;;5038234;28;19924;-85
2023/05/27 14:33:26;;;;;;;;;;;;;;;;;;5037264;28;19917;-86
2023/05/27 14:35:51;;;;;;;;;;;;;;;;;;5038283;28;19921;-85
2023/05/27 14:38:16;;;;;;;;;;;;;;;;;;5037913;28;19912;-83
2023/05/27 14:40:43;;;;;;;;;;;;;;;;;;5040191;28;20269;-83
2023/05/27 14:43:09;;;;;;;;;;;;;;;;;;5037727;28;19913;-83
2023/05/27 14:45:34;;;;;;;;;;;;;;;;;;5040491;28;19909;-83
2023/05/27 14:47:59;;;;;;;;;;;;;;;;;;5034615;28;19917;-84
2023/05/27 14:50:25;;;;;;;;;;;;;;;;;;5033393;28;19913;-83
2023/05/27 14:52:50;;;;;;;;;;;;;;;;;;5038446;28;19917;-84
2023/05/27 14:55:15;;;;;;;;;;;;;;;;;;5040697;28;19916;-84
2023/05/27 14:57:40;;;;;;;;;;;;;;;;;;5037505;28;19917;-84
2023/05/27 15:00:06;;;;;;;;;;;;;;;;;;5040494;28;20003;-84
2023/05/27 15:02:31;;;;;;;;;;;;;;;;;;5038064;28;19920;-85
2023/05/27 15:04:56;;;;;;;;;;;;;;;;;;5041697;28;21056;-84
2023/05/27 15:07:22;;;;;;;;;;;;;;;;;;5038525;28;20019;-84
2023/05/27 15:09:48;;;;;;;;;;;;;;;;;;5032935;28;20322;-85
2023/05/27 15:12:13;;;;;;;;;;;;;;;;;;5032118;28;20296;-85
2023/05/27 15:14:38;;;;;;;;;;;;;;;;;;5033490;28;20003;-85
2023/05/27 15:17:04;;;;;;;;;;;;;;;;;;5032166;28;19913;-84
2023/05/27 15:19:29;;;;;;;;;;;;;;;;;;5033515;28;20002;-83
2023/05/27 15:21:55;;;;;;;;;;;;;;;;;;5034476;28;19966;-83
2023/05/27 15:24:20;;;;;;;;;;;;;;;;;;5033283;28;20388;-83
2023/05/27 15:26:45;;;;;;;;;;;;;;;;;;5034270;28;20296;-82
2023/05/27 15:29:11;;;;;;;;;;;;;;;;;;5035061;28;19909;-86
2023/05/27 15:31:36;;;;;;;;;;;;;;;;;;5034703;28;19935;-85
2023/05/27 15:34:02;;;;;;;;;;;;;;;;;;5035480;28;19913;-85
2023/05/27 15:36:27;;;;;;;;;;;;;;;;;;5032235;28;20019;-84
2023/05/27 15:38:53;;;;;;;;;;;;;;;;;;5033284;28;19958;-84
2023/05/27 15:41:18;;;;;;;;;;;;;;;;;;5032000;28;20261;-85
2023/05/27 15:43:43;;;;;;;;;;;;;;;;;;5033328;28;20348;-85
2023/05/27 15:46:08;;;;;;;;;;;;;;;;;;5033024;28;19913;-84
2023/05/27 15:48:34;;;;;;;;;;;;;;;;;;5033479;28;20261;-83
2023/05/27 15:50:59;;;;;;;;;;;;;;;;;;5032699;28;19913;-83
2023/05/27 15:53:25;;;;;;;;;;;;;;;;;;5033136;28;19909;-84
2023/05/27 15:55:50;;;;;;;;;;;;;;;;;;5033253;28;19925;-85
2023/05/27 15:58:15;;;;;;;;;;;;;;;;;;5032360;28;19916;-84
2023/05/27 16:00:41;;;;;;;;;;;;;;;;;;5065184;28;19917;-84
2023/05/27 16:03:06;;;;;;;;;;;;;;;;;;5033436;28;20013;-83
2023/05/27 16:05:31;;;;;;;;;;;;;;;;;;5033362;28;19913;-83
2023/05/27 16:07:57;;;;;;;;;;;;;;;;;;5040105;28;20375;-83
2023/05/27 16:10:22;;;;;;;;;;;;;;;;;;5031663;28;19925;-84
2023/05/27 16:12:47;;;;;;;;;;;;;;;;;;5031821;28;20422;-84
2023/05/27 16:15:13;;;;;;;;;;;;;;;;;;5032320;28;19920;-85
2023/05/27 16:17:38;;;;;;;;;;;;;;;;;;5030922;28;20320;-85
2023/05/27 16:20:04;;;;;;;;;;;;;;;;;;5032084;28;19920;-85
2023/05/27 16:22:29;;;;;;;;;;;;;;;;;;5032386;28;19982;-84
2023/05/27 16:24:54;;;;;;;;;;;;;;;;;;5032822;28;20401;-86
2023/05/27 16:27:20;;;;;;;;;;;;;;;;;;5034007;28;19917;-84
2023/05/27 16:29:45;;;;;;;;;;;;;;;;;;5032977;28;19917;-84
2023/05/27 16:32:10;;;;;;;;;;;;;;;;;;5033203;28;20364;-84
2023/05/27 16:34:36;;;;;;;;;;;;;;;;;;5032308;28;19958;-84
2023/05/27 16:37:01;;;;;;;;;;;;;;;;;;5033464;28;19925;-84
2023/05/27 16:39:26;;;;;;;;;;;;;;;;;;5033565;28;20369;-84
2023/05/27 16:41:52;;;;;;;;;;;;;;;;;;5034813;28;19959;-85
2023/05/27 16:44:19;;;;;;;;;;;;;;;;;;5033872;28;19925;-84